sensor_id;sensor_type;location;lat;lon;timestamp;temperature;humidity
21246;DHT22;10781;50.928;4.440;2023-05-07T00:01:56;17.40;99.90
21246;DHT22;10781;50.928;4.440;2023-05-07T00:04:22;17.30;99.90
21246;DHT22;10781;50.928;4.440;2023-05-07T00:06:48;17.20;99.90
21246;DHT22;10781;50.928;4.440;2023-05-07T00:09:13;17.00;99.90
21246;DHT22;10781;50.928;4.440;2023-05-07T00:11:39;17.00;99.90
21246;DHT22;10781;50.928;4.440;2023-05-07T00:14:06;16.90;99.90
21246;DHT22;10781;50.928;4.440;2023-05-07T00:16:31;17.10;99.90
21246;DHT22;10781;50.928;4.440;2023-05-07T00:18:57;17.10;99.90
21246;DHT22;10781;50.928;4.440;2023-05-07T00:21:23;17.10;99.90
21246;DHT22;10781;50.928;4.440;2023-05-07T00:23:52;17.10;99.90
21246;DHT22;10781;50.928;4.440;2023-05-07T00:26:18;17.00;99.90
21246;DHT22;10781;50.928;4.440;2023-05-07T00:28:44;17.10;99.90
21246;DHT22;10781;50.928;4.440;2023-05-07T00:31:09;17.10;99.90
21246;DHT22;10781;50.928;4.440;2023-05-07T00:33:35;17.40;99.90
21246;DHT22;10781;50.928;4.440;2023-05-07T00:36:01;17.70;99.90
21246;DHT22;10781;50.928;4.440;2023-05-07T00:38:27;17.80;99.90
21246;DHT22;10781;50.928;4.440;2023-05-07T00:40:53;18.10;99.90
21246;DHT22;10781;50.928;4.440;2023-05-07T00:43:18;18.50;99.90
21246;DHT22;10781;50.928;4.440;2023-05-07T00:45:44;18.70;99.90
21246;DHT22;10781;50.928;4.440;2023-05-07T00:48:10;18.70;99.90
21246;DHT22;10781;50.928;4.440;2023-05-07T00:50:35;18.70;99.90
21246;DHT22;10781;50.928;4.440;2023-05-07T00:53:01;18.70;99.90
21246;DHT22;10781;50.928;4.440;2023-05-07T00:55:28;18.70;99.90
21246;DHT22;10781;50.928;4.440;2023-05-07T00:57:54;18.80;99.90
21246;DHT22;10781;50.928;4.440;2023-05-07T01:00:20;18.90;99.90
21246;DHT22;10781;50.928;4.440;2023-05-07T01:02:46;18.80;99.90
21246;DHT22;10781;50.928;4.440;2023-05-07T01:05:15;18.80;99.90
21246;DHT22;10781;50.928;4.440;2023-05-07T01:07:42;18.80;99.90
21246;DHT22;10781;50.928;4.440;2023-05-07T01:10:08;18.70;99.90
21246;DHT22;10781;50.928;4.440;2023-05-07T01:12:35;18.60;99.90
21246;DHT22;10781;50.928;4.440;2023-05-07T01:15:03;18.60;99.90
21246;DHT22;10781;50.928;4.440;2023-05-07T01:17:29;18.60;99.90
21246;DHT22;10781;50.928;4.440;2023-05-07T01:19:58;18.80;99.90
21246;DHT22;10781;50.928;4.440;2023-05-07T01:22:34;19.00;99.90
21246;DHT22;10781;50.928;4.440;2023-05-07T01:25:05;19.00;99.90
21246;DHT22;10781;50.928;4.440;2023-05-07T01:27:32;19.10;99.90
21246;DHT22;10781;50.928;4.440;2023-05-07T01:29:59;19.10;99.90
21246;DHT22;10781;50.928;4.440;2023-05-07T01:32:33;19.10;99.90
21246;DHT22;10781;50.928;4.440;2023-05-07T01:35:01;19.10;99.90
21246;DHT22;10781;50.928;4.440;2023-05-07T01:37:28;19.00;99.90
21246;DHT22;10781;50.928;4.440;2023-05-07T01:39:54;18.90;99.90
21246;DHT22;10781;50.928;4.440;2023-05-07T01:42:21;18.80;99.90
21246;DHT22;10781;50.928;4.440;2023-05-07T01:44:47;18.60;99.90
21246;DHT22;10781;50.928;4.440;2023-05-07T01:47:14;18.40;99.90
21246;DHT22;10781;50.928;4.440;2023-05-07T01:49:40;18.10;99.90
21246;DHT22;10781;50.928;4.440;2023-05-07T01:52:07;17.80;99.90
21246;DHT22;10781;50.928;4.440;2023-05-07T01:54:33;17.90;99.90
21246;DHT22;10781;50.928;4.440;2023-05-07T01:56:59;18.00;99.90
21246;DHT22;10781;50.928;4.440;2023-05-07T01:59:25;18.20;99.90
21246;DHT22;10781;50.928;4.440;2023-05-07T02:01:51;18.00;99.90
21246;DHT22;10781;50.928;4.440;2023-05-07T02:04:17;17.90;99.90
21246;DHT22;10781;50.928;4.440;2023-05-07T02:06:43;18.00;99.90
21246;DHT22;10781;50.928;4.440;2023-05-07T02:09:09;18.10;99.90
21246;DHT22;10781;50.928;4.440;2023-05-07T02:11:35;18.20;99.90
21246;DHT22;10781;50.928;4.440;2023-05-07T02:14:00;18.30;99.90
21246;DHT22;10781;50.928;4.440;2023-05-07T02:16:26;18.30;99.90
21246;DHT22;10781;50.928;4.440;2023-05-07T02:18:52;18.40;99.90
21246;DHT22;10781;50.928;4.440;2023-05-07T02:21:18;18.50;99.90
21246;DHT22;10781;50.928;4.440;2023-05-07T02:23:44;18.40;99.90
21246;DHT22;10781;50.928;4.440;2023-05-07T02:26:10;18.40;99.90
21246;DHT22;10781;50.928;4.440;2023-05-07T02:28:36;18.30;99.90
21246;DHT22;10781;50.928;4.440;2023-05-07T02:31:05;18.30;99.90
21246;DHT22;10781;50.928;4.440;2023-05-07T02:33:31;18.20;99.90
21246;DHT22;10781;50.928;4.440;2023-05-07T02:35:59;18.20;99.90
21246;DHT22;10781;50.928;4.440;2023-05-07T02:38:30;18.30;99.90
21246;DHT22;10781;50.928;4.440;2023-05-07T02:40:55;18.30;99.90
21246;DHT22;10781;50.928;4.440;2023-05-07T02:43:21;18.20;99.90
21246;DHT22;10781;50.928;4.440;2023-05-07T02:45:47;18.00;99.90
21246;DHT22;10781;50.928;4.440;2023-05-07T02:48:12;18.00;99.90
21246;DHT22;10781;50.928;4.440;2023-05-07T02:50:38;18.00;99.90
21246;DHT22;10781;50.928;4.440;2023-05-07T02:53:03;17.90;99.90
21246;DHT22;10781;50.928;4.440;2023-05-07T02:55:29;17.90;99.90
21246;DHT22;10781;50.928;4.440;2023-05-07T02:57:55;17.90;99.90
21246;DHT22;10781;50.928;4.440;2023-05-07T03:00:21;17.90;99.90
21246;DHT22;10781;50.928;4.440;2023-05-07T03:02:47;17.90;99.90
21246;DHT22;10781;50.928;4.440;2023-05-07T03:05:12;18.00;99.90
21246;DHT22;10781;50.928;4.440;2023-05-07T03:07:39;18.00;99.90
21246;DHT22;10781;50.928;4.440;2023-05-07T03:10:06;18.00;99.90
21246;DHT22;10781;50.928;4.440;2023-05-07T03:12:32;18.00;99.90
21246;DHT22;10781;50.928;4.440;2023-05-07T03:14:58;17.90;99.90
21246;DHT22;10781;50.928;4.440;2023-05-07T03:17:23;17.80;99.90
21246;DHT22;10781;50.928;4.440;2023-05-07T03:19:49;17.40;99.90
21246;DHT22;10781;50.928;4.440;2023-05-07T03:22:15;17.20;99.90
21246;DHT22;10781;50.928;4.440;2023-05-07T03:24:40;17.20;99.90
21246;DHT22;10781;50.928;4.440;2023-05-07T03:27:06;17.30;99.90
21246;DHT22;10781;50.928;4.440;2023-05-07T03:29:32;17.30;99.90
21246;DHT22;10781;50.928;4.440;2023-05-07T03:31:58;17.50;99.90
21246;DHT22;10781;50.928;4.440;2023-05-07T03:34:23;17.80;99.90
21246;DHT22;10781;50.928;4.440;2023-05-07T03:36:49;17.60;99.90
21246;DHT22;10781;50.928;4.440;2023-05-07T03:39:15;17.20;99.90
21246;DHT22;10781;50.928;4.440;2023-05-07T03:41:40;17.00;99.90
21246;DHT22;10781;50.928;4.440;2023-05-07T03:44:06;17.10;99.90
21246;DHT22;10781;50.928;4.440;2023-05-07T03:46:33;17.10;99.90
21246;DHT22;10781;50.928;4.440;2023-05-07T03:48:59;17.20;99.90
21246;DHT22;10781;50.928;4.440;2023-05-07T03:51:25;17.40;99.90
21246;DHT22;10781;50.928;4.440;2023-05-07T03:53:51;17.40;99.90
21246;DHT22;10781;50.928;4.440;2023-05-07T03:56:18;17.50;99.90
21246;DHT22;10781;50.928;4.440;2023-05-07T03:58:44;17.40;99.90
21246;DHT22;10781;50.928;4.440;2023-05-07T04:01:10;17.50;99.90
21246;DHT22;10781;50.928;4.440;2023-05-07T04:03:36;17.70;99.90
21246;DHT22;10781;50.928;4.440;2023-05-07T04:06:02;17.60;99.90
21246;DHT22;10781;50.928;4.440;2023-05-07T04:08:28;17.70;99.90
21246;DHT22;10781;50.928;4.440;2023-05-07T04:10:57;17.90;99.90
21246;DHT22;10781;50.928;4.440;2023-05-07T04:13:25;18.10;99.90
21246;DHT22;10781;50.928;4.440;2023-05-07T04:15:52;18.20;99.90
21246;DHT22;10781;50.928;4.440;2023-05-07T04:18:17;18.20;99.90
21246;DHT22;10781;50.928;4.440;2023-05-07T04:20:43;18.10;99.90
21246;DHT22;10781;50.928;4.440;2023-05-07T04:23:09;17.70;99.90
21246;DHT22;10781;50.928;4.440;2023-05-07T04:25:34;17.40;99.90
21246;DHT22;10781;50.928;4.440;2023-05-07T04:28:00;17.20;99.90
21246;DHT22;10781;50.928;4.440;2023-05-07T04:30:26;17.20;99.90
21246;DHT22;10781;50.928;4.440;2023-05-07T04:32:52;17.50;99.90
21246;DHT22;10781;50.928;4.440;2023-05-07T04:35:18;17.70;99.90
21246;DHT22;10781;50.928;4.440;2023-05-07T04:37:44;18.10;99.90
21246;DHT22;10781;50.928;4.440;2023-05-07T04:40:10;18.30;99.90
21246;DHT22;10781;50.928;4.440;2023-05-07T04:42:35;18.30;99.90
21246;DHT22;10781;50.928;4.440;2023-05-07T04:45:02;18.30;99.90
21246;DHT22;10781;50.928;4.440;2023-05-07T04:47:28;18.20;99.90
21246;DHT22;10781;50.928;4.440;2023-05-07T04:49:53;18.20;99.90
21246;DHT22;10781;50.928;4.440;2023-05-07T04:52:19;18.20;99.90
21246;DHT22;10781;50.928;4.440;2023-05-07T04:54:44;18.20;99.90
21246;DHT22;10781;50.928;4.440;2023-05-07T04:57:10;18.00;99.90
21246;DHT22;10781;50.928;4.440;2023-05-07T04:59:36;18.10;99.90
21246;DHT22;10781;50.928;4.440;2023-05-07T05:02:02;18.30;99.90
21246;DHT22;10781;50.928;4.440;2023-05-07T05:04:29;18.30;99.90
21246;DHT22;10781;50.928;4.440;2023-05-07T05:06:55;18.20;99.90
21246;DHT22;10781;50.928;4.440;2023-05-07T05:09:21;18.10;99.90
21246;DHT22;10781;50.928;4.440;2023-05-07T05:11:46;18.20;99.90
21246;DHT22;10781;50.928;4.440;2023-05-07T05:14:12;18.30;99.90
21246;DHT22;10781;50.928;4.440;2023-05-07T05:16:38;17.90;99.90
21246;DHT22;10781;50.928;4.440;2023-05-07T05:19:03;17.50;99.90
21246;DHT22;10781;50.928;4.440;2023-05-07T05:21:30;17.40;99.90
21246;DHT22;10781;50.928;4.440;2023-05-07T05:23:56;17.60;99.90
21246;DHT22;10781;50.928;4.440;2023-05-07T05:26:21;17.80;99.90
21246;DHT22;10781;50.928;4.440;2023-05-07T05:28:47;18.00;99.90
21246;DHT22;10781;50.928;4.440;2023-05-07T05:31:13;17.90;99.90
21246;DHT22;10781;50.928;4.440;2023-05-07T05:33:39;18.00;99.90
21246;DHT22;10781;50.928;4.440;2023-05-07T05:36:06;18.20;99.90
21246;DHT22;10781;50.928;4.440;2023-05-07T05:38:32;18.30;99.90
21246;DHT22;10781;50.928;4.440;2023-05-07T05:40:57;18.20;99.90
21246;DHT22;10781;50.928;4.440;2023-05-07T05:43:23;18.30;99.90
21246;DHT22;10781;50.928;4.440;2023-05-07T05:45:49;18.40;99.90
21246;DHT22;10781;50.928;4.440;2023-05-07T05:48:14;18.20;99.90
21246;DHT22;10781;50.928;4.440;2023-05-07T05:50:41;18.00;99.90
21246;DHT22;10781;50.928;4.440;2023-05-07T05:53:07;18.00;99.90
21246;DHT22;10781;50.928;4.440;2023-05-07T05:55:33;17.90;99.90
21246;DHT22;10781;50.928;4.440;2023-05-07T05:58:02;17.90;99.90
21246;DHT22;10781;50.928;4.440;2023-05-07T06:00:28;18.10;99.90
21246;DHT22;10781;50.928;4.440;2023-05-07T06:02:54;18.30;99.90
21246;DHT22;10781;50.928;4.440;2023-05-07T06:05:20;18.40;99.90
21246;DHT22;10781;50.928;4.440;2023-05-07T06:07:46;18.70;99.90
21246;DHT22;10781;50.928;4.440;2023-05-07T06:10:12;18.90;99.90
21246;DHT22;10781;50.928;4.440;2023-05-07T06:12:37;18.70;99.90
21246;DHT22;10781;50.928;4.440;2023-05-07T06:15:04;18.90;99.90
21246;DHT22;10781;50.928;4.440;2023-05-07T06:17:29;19.10;99.90
21246;DHT22;10781;50.928;4.440;2023-05-07T06:19:55;19.40;99.90
21246;DHT22;10781;50.928;4.440;2023-05-07T06:22:21;19.10;99.90
21246;DHT22;10781;50.928;4.440;2023-05-07T06:24:47;19.10;99.90
21246;DHT22;10781;50.928;4.440;2023-05-07T06:27:12;19.10;99.90
21246;DHT22;10781;50.928;4.440;2023-05-07T06:29:39;19.20;99.90
21246;DHT22;10781;50.928;4.440;2023-05-07T06:32:09;19.10;99.90
21246;DHT22;10781;50.928;4.440;2023-05-07T06:34:35;19.20;99.90
21246;DHT22;10781;50.928;4.440;2023-05-07T06:37:01;19.30;99.90
21246;DHT22;10781;50.928;4.440;2023-05-07T06:39:26;19.60;99.90
21246;DHT22;10781;50.928;4.440;2023-05-07T06:41:52;19.70;99.90
21246;DHT22;10781;50.928;4.440;2023-05-07T06:44:18;19.70;99.90
21246;DHT22;10781;50.928;4.440;2023-05-07T06:46:44;19.60;99.90
21246;DHT22;10781;50.928;4.440;2023-05-07T06:49:10;19.20;99.90
21246;DHT22;10781;50.928;4.440;2023-05-07T06:51:36;19.10;99.90
21246;DHT22;10781;50.928;4.440;2023-05-07T06:54:02;18.90;99.90
21246;DHT22;10781;50.928;4.440;2023-05-07T06:56:30;18.80;99.90
21246;DHT22;10781;50.928;4.440;2023-05-07T06:58:55;18.90;99.90
21246;DHT22;10781;50.928;4.440;2023-05-07T07:01:21;18.60;99.90
21246;DHT22;10781;50.928;4.440;2023-05-07T07:03:47;18.50;99.90
21246;DHT22;10781;50.928;4.440;2023-05-07T07:06:13;18.50;99.90
21246;DHT22;10781;50.928;4.440;2023-05-07T07:08:38;18.60;99.90
21246;DHT22;10781;50.928;4.440;2023-05-07T07:11:05;18.70;99.90
21246;DHT22;10781;50.928;4.440;2023-05-07T07:13:30;18.50;99.90
21246;DHT22;10781;50.928;4.440;2023-05-07T07:15:56;18.70;99.90
21246;DHT22;10781;50.928;4.440;2023-05-07T07:18:22;18.90;99.90
21246;DHT22;10781;50.928;4.440;2023-05-07T07:20:47;19.20;99.90
21246;DHT22;10781;50.928;4.440;2023-05-07T07:23:13;19.30;99.90
21246;DHT22;10781;50.928;4.440;2023-05-07T07:25:39;19.40;99.90
21246;DHT22;10781;50.928;4.440;2023-05-07T07:28:05;19.40;99.90
21246;DHT22;10781;50.928;4.440;2023-05-07T07:30:31;19.20;99.90
21246;DHT22;10781;50.928;4.440;2023-05-07T07:32:57;19.10;99.90
21246;DHT22;10781;50.928;4.440;2023-05-07T07:35:29;18.90;99.90
21246;DHT22;10781;50.928;4.440;2023-05-07T07:37:55;19.00;99.90
21246;DHT22;10781;50.928;4.440;2023-05-07T07:40:21;18.70;99.90
21246;DHT22;10781;50.928;4.440;2023-05-07T07:42:47;18.60;99.90
21246;DHT22;10781;50.928;4.440;2023-05-07T07:45:12;18.60;99.90
21246;DHT22;10781;50.928;4.440;2023-05-07T07:47:39;18.80;99.90
21246;DHT22;10781;50.928;4.440;2023-05-07T07:50:06;18.80;99.90
21246;DHT22;10781;50.928;4.440;2023-05-07T07:52:32;18.90;99.90
21246;DHT22;10781;50.928;4.440;2023-05-07T07:54:58;19.00;99.90
21246;DHT22;10781;50.928;4.440;2023-05-07T07:57:24;18.90;99.90
21246;DHT22;10781;50.928;4.440;2023-05-07T07:59:50;18.90;99.90
21246;DHT22;10781;50.928;4.440;2023-05-07T08:02:16;18.90;99.90
21246;DHT22;10781;50.928;4.440;2023-05-07T08:04:42;18.90;99.90
21246;DHT22;10781;50.928;4.440;2023-05-07T08:07:09;18.70;99.90
21246;DHT22;10781;50.928;4.440;2023-05-07T08:09:36;18.80;99.90
21246;DHT22;10781;50.928;4.440;2023-05-07T08:12:02;18.80;99.90
21246;DHT22;10781;50.928;4.440;2023-05-07T08:14:28;18.80;99.90
21246;DHT22;10781;50.928;4.440;2023-05-07T08:16:54;18.50;99.90
21246;DHT22;10781;50.928;4.440;2023-05-07T08:19:20;18.50;99.90
21246;DHT22;10781;50.928;4.440;2023-05-07T08:21:47;18.70;99.90
21246;DHT22;10781;50.928;4.440;2023-05-07T08:24:14;18.60;99.90
21246;DHT22;10781;50.928;4.440;2023-05-07T08:26:40;18.70;99.90
21246;DHT22;10781;50.928;4.440;2023-05-07T08:29:05;18.80;99.90
21246;DHT22;10781;50.928;4.440;2023-05-07T08:31:31;18.80;99.90
21246;DHT22;10781;50.928;4.440;2023-05-07T08:33:57;18.90;99.90
21246;DHT22;10781;50.928;4.440;2023-05-07T08:36:23;19.00;99.90
21246;DHT22;10781;50.928;4.440;2023-05-07T08:38:49;18.90;99.90
21246;DHT22;10781;50.928;4.440;2023-05-07T08:41:15;19.00;99.90
21246;DHT22;10781;50.928;4.440;2023-05-07T08:43:41;19.10;99.90
21246;DHT22;10781;50.928;4.440;2023-05-07T08:46:09;19.10;99.90
21246;DHT22;10781;50.928;4.440;2023-05-07T08:48:35;19.10;99.90
21246;DHT22;10781;50.928;4.440;2023-05-07T08:51:01;19.10;99.90
21246;DHT22;10781;50.928;4.440;2023-05-07T08:53:27;19.10;99.90
21246;DHT22;10781;50.928;4.440;2023-05-07T08:55:53;19.10;99.90
21246;DHT22;10781;50.928;4.440;2023-05-07T08:58:19;19.20;99.90
21246;DHT22;10781;50.928;4.440;2023-05-07T09:00:46;19.30;99.90
21246;DHT22;10781;50.928;4.440;2023-05-07T09:03:12;19.30;99.90
21246;DHT22;10781;50.928;4.440;2023-05-07T09:05:39;19.30;99.90
21246;DHT22;10781;50.928;4.440;2023-05-07T09:08:06;19.30;99.90
21246;DHT22;10781;50.928;4.440;2023-05-07T09:10:33;19.20;99.90
21246;DHT22;10781;50.928;4.440;2023-05-07T09:12:59;19.10;99.90
21246;DHT22;10781;50.928;4.440;2023-05-07T09:15:26;19.10;99.90
21246;DHT22;10781;50.928;4.440;2023-05-07T09:17:53;19.10;99.90
21246;DHT22;10781;50.928;4.440;2023-05-07T09:20:18;19.10;99.90
21246;DHT22;10781;50.928;4.440;2023-05-07T09:22:44;19.10;99.90
21246;DHT22;10781;50.928;4.440;2023-05-07T09:25:10;19.00;99.90
21246;DHT22;10781;50.928;4.440;2023-05-07T09:27:36;19.10;99.90
21246;DHT22;10781;50.928;4.440;2023-05-07T09:30:06;19.10;99.90
21246;DHT22;10781;50.928;4.440;2023-05-07T09:32:36;19.10;99.90
21246;DHT22;10781;50.928;4.440;2023-05-07T09:35:05;19.00;99.90
21246;DHT22;10781;50.928;4.440;2023-05-07T09:37:31;19.10;99.90
21246;DHT22;10781;50.928;4.440;2023-05-07T09:39:58;18.70;99.90
21246;DHT22;10781;50.928;4.440;2023-05-07T09:42:24;18.80;99.90
21246;DHT22;10781;50.928;4.440;2023-05-07T09:44:51;19.10;99.90
21246;DHT22;10781;50.928;4.440;2023-05-07T09:47:23;19.20;99.90
21246;DHT22;10781;50.928;4.440;2023-05-07T09:49:50;19.30;99.90
21246;DHT22;10781;50.928;4.440;2023-05-07T09:52:19;19.20;99.90
21246;DHT22;10781;50.928;4.440;2023-05-07T09:54:47;19.10;99.90
21246;DHT22;10781;50.928;4.440;2023-05-07T09:57:13;19.10;99.90
21246;DHT22;10781;50.928;4.440;2023-05-07T09:59:43;19.10;99.90
21246;DHT22;10781;50.928;4.440;2023-05-07T10:02:10;19.10;99.90
21246;DHT22;10781;50.928;4.440;2023-05-07T10:04:36;19.00;99.90
21246;DHT22;10781;50.928;4.440;2023-05-07T10:07:03;19.00;99.90
21246;DHT22;10781;50.928;4.440;2023-05-07T10:09:30;18.90;99.90
21246;DHT22;10781;50.928;4.440;2023-05-07T10:11:57;18.90;99.90
21246;DHT22;10781;50.928;4.440;2023-05-07T10:14:24;19.00;99.90
21246;DHT22;10781;50.928;4.440;2023-05-07T10:16:51;19.10;99.90
21246;DHT22;10781;50.928;4.440;2023-05-07T10:19:18;19.10;99.90
21246;DHT22;10781;50.928;4.440;2023-05-07T10:22:05;19.00;99.90
21246;DHT22;10781;50.928;4.440;2023-05-07T10:24:32;19.10;99.90
21246;DHT22;10781;50.928;4.440;2023-05-07T10:27:10;19.00;99.90
21246;DHT22;10781;50.928;4.440;2023-05-07T10:35:16;18.80;99.90
21246;DHT22;10781;50.928;4.440;2023-05-07T10:37:43;19.00;99.90
21246;DHT22;10781;50.928;4.440;2023-05-07T10:40:10;19.10;99.90
21246;DHT22;10781;50.928;4.440;2023-05-07T10:42:37;18.70;99.90
21246;DHT22;10781;50.928;4.440;2023-05-07T10:45:15;18.50;99.90
21246;DHT22;10781;50.928;4.440;2023-05-07T10:50:40;18.60;99.90
21246;DHT22;10781;50.928;4.440;2023-05-07T10:55:47;18.90;99.90
21246;DHT22;10781;50.928;4.440;2023-05-07T11:00:56;18.40;99.90
21246;DHT22;10781;50.928;4.440;2023-05-07T11:03:22;18.50;99.90
21246;DHT22;10781;50.928;4.440;2023-05-07T11:06:12;18.30;99.90
21246;DHT22;10781;50.928;4.440;2023-05-07T11:08:56;18.00;99.90
21246;DHT22;10781;50.928;4.440;2023-05-07T11:11:47;17.90;99.90
21246;DHT22;10781;50.928;4.440;2023-05-07T11:14:43;18.00;99.90
21246;DHT22;10781;50.928;4.440;2023-05-07T11:17:10;18.10;99.90
21246;DHT22;10781;50.928;4.440;2023-05-07T11:19:53;18.50;99.90
21246;DHT22;10781;50.928;4.440;2023-05-07T11:22:39;18.80;99.90
21246;DHT22;10781;50.928;4.440;2023-05-07T11:25:06;18.80;99.90
21246;DHT22;10781;50.928;4.440;2023-05-07T11:27:32;18.90;99.90
21246;DHT22;10781;50.928;4.440;2023-05-07T11:29:58;19.00;99.90
21246;DHT22;10781;50.928;4.440;2023-05-07T11:32:29;19.10;99.90
21246;DHT22;10781;50.928;4.440;2023-05-07T11:34:56;19.20;99.90
21246;DHT22;10781;50.928;4.440;2023-05-07T11:37:23;19.20;99.90
21246;DHT22;10781;50.928;4.440;2023-05-07T11:39:49;19.40;99.90
21246;DHT22;10781;50.928;4.440;2023-05-07T11:42:29;19.70;99.90
21246;DHT22;10781;50.928;4.440;2023-05-07T11:44:55;19.60;99.90
21246;DHT22;10781;50.928;4.440;2023-05-07T11:47:21;19.80;99.90
21246;DHT22;10781;50.928;4.440;2023-05-07T11:49:54;20.00;99.90
21246;DHT22;10781;50.928;4.440;2023-05-07T11:52:22;20.10;99.90
21246;DHT22;10781;50.928;4.440;2023-05-07T11:54:52;20.20;99.90
21246;DHT22;10781;50.928;4.440;2023-05-07T11:57:18;20.20;99.90
21246;DHT22;10781;50.928;4.440;2023-05-07T11:59:44;20.30;99.90
21246;DHT22;10781;50.928;4.440;2023-05-07T12:02:10;20.20;99.90
21246;DHT22;10781;50.928;4.440;2023-05-07T12:04:37;20.10;99.90
21246;DHT22;10781;50.928;4.440;2023-05-07T12:07:03;20.10;99.90
21246;DHT22;10781;50.928;4.440;2023-05-07T12:09:29;20.20;99.90
21246;DHT22;10781;50.928;4.440;2023-05-07T12:11:55;20.50;99.90
21246;DHT22;10781;50.928;4.440;2023-05-07T12:14:21;20.70;99.90
21246;DHT22;10781;50.928;4.440;2023-05-07T12:16:47;20.70;99.90
21246;DHT22;10781;50.928;4.440;2023-05-07T12:19:13;20.50;99.90
21246;DHT22;10781;50.928;4.440;2023-05-07T12:21:40;20.70;99.90
21246;DHT22;10781;50.928;4.440;2023-05-07T12:24:06;20.70;99.90
21246;DHT22;10781;50.928;4.440;2023-05-07T12:26:31;20.80;99.90
21246;DHT22;10781;50.928;4.440;2023-05-07T12:28:58;20.90;99.90
21246;DHT22;10781;50.928;4.440;2023-05-07T12:31:26;21.10;99.90
21246;DHT22;10781;50.928;4.440;2023-05-07T12:33:52;21.10;99.90
21246;DHT22;10781;50.928;4.440;2023-05-07T12:36:18;21.00;99.90
21246;DHT22;10781;50.928;4.440;2023-05-07T12:38:43;21.10;99.90
21246;DHT22;10781;50.928;4.440;2023-05-07T12:41:10;21.40;99.90
21246;DHT22;10781;50.928;4.440;2023-05-07T12:43:36;21.90;99.90
21246;DHT22;10781;50.928;4.440;2023-05-07T12:46:07;22.20;99.90
21246;DHT22;10781;50.928;4.440;2023-05-07T12:48:33;22.40;99.90
21246;DHT22;10781;50.928;4.440;2023-05-07T12:51:02;22.40;99.90
21246;DHT22;10781;50.928;4.440;2023-05-07T12:53:29;22.40;99.90
21246;DHT22;10781;50.928;4.440;2023-05-07T12:55:58;22.40;99.90
21246;DHT22;10781;50.928;4.440;2023-05-07T12:58:27;22.50;99.90
21246;DHT22;10781;50.928;4.440;2023-05-07T13:00:55;22.60;99.90
21246;DHT22;10781;50.928;4.440;2023-05-07T13:03:24;22.90;99.90
21246;DHT22;10781;50.928;4.440;2023-05-07T13:05:51;23.00;99.90
21246;DHT22;10781;50.928;4.440;2023-05-07T13:08:27;23.10;99.90
21246;DHT22;10781;50.928;4.440;2023-05-07T13:10:53;23.10;99.90
21246;DHT22;10781;50.928;4.440;2023-05-07T13:13:20;23.00;99.90
21246;DHT22;10781;50.928;4.440;2023-05-07T13:15:47;23.10;99.90
21246;DHT22;10781;50.928;4.440;2023-05-07T13:18:13;23.20;99.90
21246;DHT22;10781;50.928;4.440;2023-05-07T13:20:38;23.20;99.90
21246;DHT22;10781;50.928;4.440;2023-05-07T13:23:04;22.90;99.90
21246;DHT22;10781;50.928;4.440;2023-05-07T13:25:30;22.90;99.90
21246;DHT22;10781;50.928;4.440;2023-05-07T13:27:59;22.90;99.90
21246;DHT22;10781;50.928;4.440;2023-05-07T13:30:25;23.00;99.90
21246;DHT22;10781;50.928;4.440;2023-05-07T13:32:53;22.80;99.90
21246;DHT22;10781;50.928;4.440;2023-05-07T13:35:20;22.70;99.90
21246;DHT22;10781;50.928;4.440;2023-05-07T13:37:46;22.50;99.90
21246;DHT22;10781;50.928;4.440;2023-05-07T13:40:13;22.40;99.90
21246;DHT22;10781;50.928;4.440;2023-05-07T13:42:39;22.50;99.90
21246;DHT22;10781;50.928;4.440;2023-05-07T13:45:05;22.40;99.90
21246;DHT22;10781;50.928;4.440;2023-05-07T13:47:31;22.40;99.90
21246;DHT22;10781;50.928;4.440;2023-05-07T13:49:56;22.60;99.90
21246;DHT22;10781;50.928;4.440;2023-05-07T13:52:22;22.50;99.90
21246;DHT22;10781;50.928;4.440;2023-05-07T13:54:48;22.60;99.90
21246;DHT22;10781;50.928;4.440;2023-05-07T13:57:14;22.80;99.90
21246;DHT22;10781;50.928;4.440;2023-05-07T13:59:41;22.40;99.90
21246;DHT22;10781;50.928;4.440;2023-05-07T14:02:07;22.70;99.90
21246;DHT22;10781;50.928;4.440;2023-05-07T14:04:33;22.80;99.90
21246;DHT22;10781;50.928;4.440;2023-05-07T14:06:58;22.80;99.90
21246;DHT22;10781;50.928;4.440;2023-05-07T14:09:24;22.80;99.90
21246;DHT22;10781;50.928;4.440;2023-05-07T14:11:50;22.60;99.90
21246;DHT22;10781;50.928;4.440;2023-05-07T14:14:17;22.60;99.90
21246;DHT22;10781;50.928;4.440;2023-05-07T14:16:44;22.50;99.90
21246;DHT22;10781;50.928;4.440;2023-05-07T14:19:11;22.30;99.90
21246;DHT22;10781;50.928;4.440;2023-05-07T14:21:37;22.40;99.90
21246;DHT22;10781;50.928;4.440;2023-05-07T14:24:03;22.30;99.90
21246;DHT22;10781;50.928;4.440;2023-05-07T14:26:29;22.40;99.90
21246;DHT22;10781;50.928;4.440;2023-05-07T14:28:55;22.50;99.90
21246;DHT22;10781;50.928;4.440;2023-05-07T14:31:23;22.50;99.90
21246;DHT22;10781;50.928;4.440;2023-05-07T14:33:49;22.50;99.90
21246;DHT22;10781;50.928;4.440;2023-05-07T14:36:16;22.70;99.90
21246;DHT22;10781;50.928;4.440;2023-05-07T14:38:42;22.90;99.90
21246;DHT22;10781;50.928;4.440;2023-05-07T14:41:08;22.80;99.90
21246;DHT22;10781;50.928;4.440;2023-05-07T14:43:34;22.40;99.90
21246;DHT22;10781;50.928;4.440;2023-05-07T14:45:59;22.40;99.90
21246;DHT22;10781;50.928;4.440;2023-05-07T14:48:25;22.70;99.90
21246;DHT22;10781;50.928;4.440;2023-05-07T14:50:51;23.00;99.90
21246;DHT22;10781;50.928;4.440;2023-05-07T14:53:16;23.20;99.90
21246;DHT22;10781;50.928;4.440;2023-05-07T14:55:42;23.40;99.90
21246;DHT22;10781;50.928;4.440;2023-05-07T14:58:08;23.30;99.90
21246;DHT22;10781;50.928;4.440;2023-05-07T15:00:33;23.30;99.90
21246;DHT22;10781;50.928;4.440;2023-05-07T15:03:06;23.40;99.90
21246;DHT22;10781;50.928;4.440;2023-05-07T15:05:32;23.30;99.90
21246;DHT22;10781;50.928;4.440;2023-05-07T15:07:58;23.20;99.90
21246;DHT22;10781;50.928;4.440;2023-05-07T15:10:24;22.90;99.90
21246;DHT22;10781;50.928;4.440;2023-05-07T15:12:50;23.10;99.90
21246;DHT22;10781;50.928;4.440;2023-05-07T15:15:16;23.20;99.90
21246;DHT22;10781;50.928;4.440;2023-05-07T15:17:41;23.20;99.90
21246;DHT22;10781;50.928;4.440;2023-05-07T15:20:07;23.30;99.90
21246;DHT22;10781;50.928;4.440;2023-05-07T15:22:33;23.30;99.90
21246;DHT22;10781;50.928;4.440;2023-05-07T15:25:01;23.20;99.90
21246;DHT22;10781;50.928;4.440;2023-05-07T15:27:27;23.10;99.90
21246;DHT22;10781;50.928;4.440;2023-05-07T15:29:52;23.10;99.90
21246;DHT22;10781;50.928;4.440;2023-05-07T15:32:18;23.20;99.90
21246;DHT22;10781;50.928;4.440;2023-05-07T15:34:44;23.20;99.90
21246;DHT22;10781;50.928;4.440;2023-05-07T15:37:10;23.10;99.90
21246;DHT22;10781;50.928;4.440;2023-05-07T15:39:35;23.10;99.90
21246;DHT22;10781;50.928;4.440;2023-05-07T15:42:01;22.90;99.90